QRA weather

Rand Airport
Johannesburg, Gauteng, South Africa

Public forecast

Using degrees Celsius for public forecast. Weather courtesy of forecast.io.

METAR (pilot weather report)

Report is more than 2 hours old.

Retrieved 2018/10/17 17:00 UTC (3 hours ago):

FAGM 171700Z 22006KT CAVOK 20/M07 Q1019

TAF (pilot weather forecast)

Forecast is more than 12 hours old.

Closest forecast is OR Tambo International Airport, 8.0 nm (14.9 km) NE. Retrieved 2018/10/17 06:00 UTC (14 hours ago):

TAF FAOR 170850Z 1706/1812 28013KT CAVOK PROB30 TEMPO 1713/1717 FEW040TCU BECMG 1716/1718 20010KT BECMG 1719/1721 VRB03KT BECMG 1800/1802 11008KT SCT010 PROB30 TEMPO 1802/1804 BKN008 BECMG 1807/1809 36012KT SCT035 TX24/1713Z TN12/1803Z